sensor_id;sensor_type;location;lat;lon;timestamp;pressure;altitude;pressure_sealevel;temperature;humidity
76331;BME280;65148;51.912;15.570;2023-03-23T00:14:02;100744.46;;;10.85;83.93
76331;BME280;65148;51.912;15.570;2023-03-23T00:29:21;100722.98;;;10.55;87.47
76331;BME280;65148;51.912;15.570;2023-03-23T00:44:22;100717.17;;;10.38;86.81
76331;BME280;65148;51.912;15.570;2023-03-23T00:59:24;100694.45;;;10.18;87.84
76331;BME280;65148;51.912;15.570;2023-03-23T01:14:25;100674.87;;;10.16;88.97
76331;BME280;65148;51.912;15.570;2023-03-23T01:29:41;100674.06;;;10.16;93.00
76331;BME280;65148;51.912;15.570;2023-03-23T01:59:57;100644.18;;;10.40;92.15
76331;BME280;65148;51.912;15.570;2023-03-23T02:15:25;100627.36;;;10.38;92.60
76331;BME280;65148;51.912;15.570;2023-03-23T02:45:44;100614.39;;;10.53;91.81
76331;BME280;65148;51.912;15.570;2023-03-23T03:01:46;100599.03;;;10.39;92.59
76331;BME280;65148;51.912;15.570;2023-03-23T03:32:02;100585.85;;;10.93;82.37
76331;BME280;65148;51.912;15.570;2023-03-23T03:47:06;100584.84;;;11.64;77.96
76331;BME280;65148;51.912;15.570;2023-03-23T04:02:08;100572.67;;;12.08;74.85
76331;BME280;65148;51.912;15.570;2023-03-23T04:17:09;100561.87;;;12.17;72.65
76331;BME280;65148;51.912;15.570;2023-03-23T04:32:24;100552.77;;;12.08;72.56
76331;BME280;65148;51.912;15.570;2023-03-23T04:47:32;100551.16;;;12.20;69.08
76331;BME280;65148;51.912;15.570;2023-03-23T05:02:36;100534.08;;;12.28;68.20
76331;BME280;65148;51.912;15.570;2023-03-23T05:18:04;100536.30;;;12.26;66.99
76331;BME280;65148;51.912;15.570;2023-03-23T05:33:05;100533.97;;;12.61;66.30
76331;BME280;65148;51.912;15.570;2023-03-23T05:48:06;100530.06;;;12.89;64.79
76331;BME280;65148;51.912;15.570;2023-03-23T06:03:09;100541.51;;;12.91;65.06
76331;BME280;65148;51.912;15.570;2023-03-23T06:18:27;100526.07;;;13.09;64.37
76331;BME280;65148;51.912;15.570;2023-03-23T06:33:30;100513.02;;;13.64;63.19
76331;BME280;65148;51.912;15.570;2023-03-23T06:48:32;100519.16;;;14.32;61.46
76331;BME280;65148;51.912;15.570;2023-03-23T07:03:33;100523.32;;;14.60;59.38
76331;BME280;65148;51.912;15.570;2023-03-23T07:18:50;100541.83;;;14.54;59.51
76331;BME280;65148;51.912;15.570;2023-03-23T07:33:51;100544.84;;;15.01;60.54
76331;BME280;65148;51.912;15.570;2023-03-23T07:48:52;100544.35;;;15.16;58.04
76331;BME280;65148;51.912;15.570;2023-03-23T08:03:55;100546.97;;;15.56;58.07
76331;BME280;65148;51.912;15.570;2023-03-23T08:19:12;100550.19;;;15.66;56.80
76331;BME280;65148;51.912;15.570;2023-03-23T08:34:13;100570.00;;;15.98;55.29
76331;BME280;65148;51.912;15.570;2023-03-23T08:49:16;100592.03;;;16.27;54.49
76331;BME280;65148;51.912;15.570;2023-03-23T09:04:18;100591.48;;;16.51;54.01
76331;BME280;65148;51.912;15.570;2023-03-23T09:19:35;100614.41;;;16.00;55.94
76331;BME280;65148;51.912;15.570;2023-03-23T09:34:37;100634.58;;;16.04;57.28
76331;BME280;65148;51.912;15.570;2023-03-23T10:05:23;100666.56;;;14.91;67.97
76331;BME280;65148;51.912;15.570;2023-03-23T10:36:19;100671.76;;;15.02;75.09
76331;BME280;65148;51.912;15.570;2023-03-23T10:51:35;100650.53;;;14.76;72.91
76331;BME280;65148;51.912;15.570;2023-03-23T11:06:33;100641.54;;;15.58;68.58
76331;BME280;65148;51.912;15.570;2023-03-23T11:22:05;100642.92;;;15.13;69.39
76331;BME280;65148;51.912;15.570;2023-03-23T11:37:13;100630.21;;;15.43;67.55
76331;BME280;65148;51.912;15.570;2023-03-23T12:54:03;100629.55;;;16.15;64.48
76331;BME280;65148;51.912;15.570;2023-03-23T13:24:54;100586.47;;;16.44;63.48
76331;BME280;65148;51.912;15.570;2023-03-23T14:07:52;100579.75;;;17.01;56.54
76331;BME280;65148;51.912;15.570;2023-03-23T14:22:54;100573.95;;;16.73;57.35
76331;BME280;65148;51.912;15.570;2023-03-23T14:38:22;100558.63;;;16.63;56.99
76331;BME280;65148;51.912;15.570;2023-03-23T14:53:38;100546.37;;;16.52;59.73
76331;BME280;65148;51.912;15.570;2023-03-23T15:08:39;100577.77;;;16.42;60.85
76331;BME280;65148;51.912;15.570;2023-03-23T15:23:58;100577.53;;;16.18;62.09
76331;BME280;65148;51.912;15.570;2023-03-23T15:38:59;100583.19;;;16.22;62.05
76331;BME280;65148;51.912;15.570;2023-03-23T15:54:01;100595.30;;;16.12;61.77
76331;BME280;65148;51.912;15.570;2023-03-23T16:09:04;100616.95;;;16.22;60.51
76331;BME280;65148;51.912;15.570;2023-03-23T16:24:20;100614.24;;;15.96;61.87
76331;BME280;65148;51.912;15.570;2023-03-23T16:39:22;100622.12;;;16.15;61.71
76331;BME280;65148;51.912;15.570;2023-03-23T16:54:23;100637.65;;;16.02;61.91
76331;BME280;65148;51.912;15.570;2023-03-23T17:09:25;100653.17;;;15.73;62.21
76331;BME280;65148;51.912;15.570;2023-03-23T17:24:43;100646.41;;;15.79;62.38
76331;BME280;65148;51.912;15.570;2023-03-23T17:39:47;100672.08;;;15.57;63.55
76331;BME280;65148;51.912;15.570;2023-03-23T17:54:48;100684.09;;;15.39;63.42
76331;BME280;65148;51.912;15.570;2023-03-23T18:09:50;100718.05;;;15.03;64.14
76331;BME280;65148;51.912;15.570;2023-03-23T18:25:06;100700.33;;;14.70;64.36
76331;BME280;65148;51.912;15.570;2023-03-23T18:40:09;100694.18;;;14.73;64.41
76331;BME280;65148;51.912;15.570;2023-03-23T18:55:10;100689.48;;;14.65;64.69
76331;BME280;65148;51.912;15.570;2023-03-23T19:10:11;100687.63;;;14.51;65.11
76331;BME280;65148;51.912;15.570;2023-03-23T19:25:29;100701.52;;;14.10;66.69
76331;BME280;65148;51.912;15.570;2023-03-23T19:40:32;100721.09;;;13.81;68.72
76331;BME280;65148;51.912;15.570;2023-03-23T19:55:39;100718.66;;;13.80;69.00
76331;BME280;65148;51.912;15.570;2023-03-23T20:10:41;100729.92;;;13.65;69.05
76331;BME280;65148;51.912;15.570;2023-03-23T20:26:00;100738.25;;;13.05;72.13
76331;BME280;65148;51.912;15.570;2023-03-23T20:41:04;100746.97;;;13.07;72.81
76331;BME280;65148;51.912;15.570;2023-03-23T20:56:06;100755.34;;;13.10;73.36
76331;BME280;65148;51.912;15.570;2023-03-23T21:11:34;100745.10;;;12.89;74.45
76331;BME280;65148;51.912;15.570;2023-03-23T21:26:35;100748.27;;;12.96;73.73
76331;BME280;65148;51.912;15.570;2023-03-23T21:41:38;100754.20;;;12.38;75.12
76331;BME280;65148;51.912;15.570;2023-03-23T21:56:39;100744.23;;;11.72;77.39
76331;BME280;65148;51.912;15.570;2023-03-23T22:11:58;100748.87;;;11.29;81.19
76331;BME280;65148;51.912;15.570;2023-03-23T22:26:59;100730.78;;;11.14;80.69
76331;BME280;65148;51.912;15.570;2023-03-23T22:42:01;100702.38;;;10.73;81.35
76331;BME280;65148;51.912;15.570;2023-03-23T22:57:02;100698.23;;;10.22;82.56
76331;BME280;65148;51.912;15.570;2023-03-23T23:12:23;100693.66;;;9.74;83.99
76331;BME280;65148;51.912;15.570;2023-03-23T23:27:25;100693.51;;;9.55;84.97
76331;BME280;65148;51.912;15.570;2023-03-23T23:42:27;100692.41;;;9.56;87.57
76331;BME280;65148;51.912;15.570;2023-03-23T23:57:28;100681.81;;;9.60;89.13
